sensor_id;sensor_type;location;lat;lon;timestamp;P1;durP1;ratioP1;P2;durP2;ratioP2
24357;SDS011;13668;52.154;5.580;2022-07-22T00:00:44;9.57;;;2.88;;
24357;SDS011;13668;52.154;5.580;2022-07-22T00:03:10;9.27;;;2.70;;
24357;SDS011;13668;52.154;5.580;2022-07-22T00:05:36;4.63;;;2.40;;
24357;SDS011;13668;52.154;5.580;2022-07-22T00:08:02;6.60;;;2.72;;
24357;SDS011;13668;52.154;5.580;2022-07-22T00:10:28;3.67;;;2.17;;
24357;SDS011;13668;52.154;5.580;2022-07-22T00:12:54;5.95;;;2.10;;
24357;SDS011;13668;52.154;5.580;2022-07-22T00:15:20;4.03;;;2.55;;
24357;SDS011;13668;52.154;5.580;2022-07-22T00:17:46;4.65;;;2.75;;
24357;SDS011;13668;52.154;5.580;2022-07-22T00:20:12;4.90;;;2.55;;
24357;SDS011;13668;52.154;5.580;2022-07-22T00:22:38;5.07;;;2.47;;
24357;SDS011;13668;52.154;5.580;2022-07-22T00:25:04;5.82;;;2.42;;
24357;SDS011;13668;52.154;5.580;2022-07-22T00:27:30;4.85;;;2.95;;
24357;SDS011;13668;52.154;5.580;2022-07-22T00:29:56;7.65;;;3.03;;
24357;SDS011;13668;52.154;5.580;2022-07-22T00:32:22;5.45;;;2.00;;
24357;SDS011;13668;52.154;5.580;2022-07-22T00:34:48;9.32;;;2.60;;
24357;SDS011;13668;52.154;5.580;2022-07-22T00:37:14;5.13;;;2.38;;
24357;SDS011;13668;52.154;5.580;2022-07-22T00:39:40;6.72;;;2.28;;
24357;SDS011;13668;52.154;5.580;2022-07-22T00:42:06;4.78;;;2.78;;
24357;SDS011;13668;52.154;5.580;2022-07-22T00:44:32;4.78;;;2.17;;
24357;SDS011;13668;52.154;5.580;2022-07-22T00:46:58;7.55;;;2.97;;
24357;SDS011;13668;52.154;5.580;2022-07-22T00:49:24;8.35;;;3.25;;
24357;SDS011;13668;52.154;5.580;2022-07-22T00:51:50;5.82;;;2.63;;
24357;SDS011;13668;52.154;5.580;2022-07-22T00:54:16;5.13;;;2.60;;
24357;SDS011;13668;52.154;5.580;2022-07-22T00:56:42;6.47;;;2.67;;
24357;SDS011;13668;52.154;5.580;2022-07-22T00:59:09;6.05;;;2.50;;
24357;SDS011;13668;52.154;5.580;2022-07-22T01:01:36;4.47;;;2.55;;
24357;SDS011;13668;52.154;5.580;2022-07-22T01:04:02;3.65;;;2.55;;
24357;SDS011;13668;52.154;5.580;2022-07-22T01:06:29;8.68;;;2.75;;
24357;SDS011;13668;52.154;5.580;2022-07-22T01:08:55;6.38;;;2.17;;
24357;SDS011;13668;52.154;5.580;2022-07-22T01:11:24;3.35;;;2.10;;
24357;SDS011;13668;52.154;5.580;2022-07-22T01:13:51;7.88;;;2.95;;
24357;SDS011;13668;52.154;5.580;2022-07-22T01:16:17;5.70;;;2.78;;
24357;SDS011;13668;52.154;5.580;2022-07-22T01:18:44;5.70;;;2.33;;
24357;SDS011;13668;52.154;5.580;2022-07-22T01:21:10;8.27;;;2.20;;
24357;SDS011;13668;52.154;5.580;2022-07-22T01:23:37;6.93;;;3.28;;
24357;SDS011;13668;52.154;5.580;2022-07-22T01:26:03;4.25;;;2.50;;
24357;SDS011;13668;52.154;5.580;2022-07-22T01:28:30;4.88;;;2.47;;
24357;SDS011;13668;52.154;5.580;2022-07-22T01:30:56;5.70;;;2.85;;
24357;SDS011;13668;52.154;5.580;2022-07-22T01:33:22;3.55;;;2.00;;
24357;SDS011;13668;52.154;5.580;2022-07-22T01:35:48;3.83;;;2.20;;
24357;SDS011;13668;52.154;5.580;2022-07-22T01:38:15;4.88;;;2.38;;
24357;SDS011;13668;52.154;5.580;2022-07-22T01:40:41;6.22;;;2.10;;
24357;SDS011;13668;52.154;5.580;2022-07-22T01:43:08;3.78;;;2.20;;
24357;SDS011;13668;52.154;5.580;2022-07-22T01:45:34;1.73;;;1.60;;
24357;SDS011;13668;52.154;5.580;2022-07-22T01:48:00;4.68;;;2.30;;
24357;SDS011;13668;52.154;5.580;2022-07-22T01:50:26;3.15;;;1.70;;
24357;SDS011;13668;52.154;5.580;2022-07-22T01:52:53;5.80;;;1.98;;
24357;SDS011;13668;52.154;5.580;2022-07-22T01:55:19;3.53;;;1.98;;
24357;SDS011;13668;52.154;5.580;2022-07-22T01:57:45;2.70;;;1.48;;
24357;SDS011;13668;52.154;5.580;2022-07-22T02:00:11;5.22;;;2.03;;
24357;SDS011;13668;52.154;5.580;2022-07-22T02:02:37;3.22;;;1.98;;
24357;SDS011;13668;52.154;5.580;2022-07-22T02:05:04;3.72;;;1.83;;
24357;SDS011;13668;52.154;5.580;2022-07-22T02:07:30;6.60;;;2.30;;
24357;SDS011;13668;52.154;5.580;2022-07-22T02:09:56;4.32;;;2.03;;
24357;SDS011;13668;52.154;5.580;2022-07-22T02:12:22;4.68;;;2.38;;
24357;SDS011;13668;52.154;5.580;2022-07-22T02:14:51;4.15;;;1.92;;
24357;SDS011;13668;52.154;5.580;2022-07-22T02:17:17;5.93;;;2.70;;
24357;SDS011;13668;52.154;5.580;2022-07-22T02:19:43;6.30;;;2.40;;
24357;SDS011;13668;52.154;5.580;2022-07-22T02:22:09;5.70;;;2.40;;
24357;SDS011;13668;52.154;5.580;2022-07-22T02:24:35;3.08;;;2.08;;
24357;SDS011;13668;52.154;5.580;2022-07-22T02:27:01;5.05;;;1.83;;
24357;SDS011;13668;52.154;5.580;2022-07-22T02:29:28;3.58;;;2.38;;
24357;SDS011;13668;52.154;5.580;2022-07-22T02:31:54;4.47;;;2.00;;
24357;SDS011;13668;52.154;5.580;2022-07-22T02:34:20;4.28;;;1.90;;
24357;SDS011;13668;52.154;5.580;2022-07-22T02:36:46;1.90;;;1.73;;
24357;SDS011;13668;52.154;5.580;2022-07-22T02:39:12;4.43;;;1.60;;
24357;SDS011;13668;52.154;5.580;2022-07-22T02:41:38;3.88;;;1.60;;
24357;SDS011;13668;52.154;5.580;2022-07-22T02:44:04;2.72;;;1.77;;
24357;SDS011;13668;52.154;5.580;2022-07-22T02:46:30;4.15;;;1.92;;
24357;SDS011;13668;52.154;5.580;2022-07-22T02:48:56;2.88;;;1.98;;
24357;SDS011;13668;52.154;5.580;2022-07-22T02:51:23;5.50;;;2.70;;
24357;SDS011;13668;52.154;5.580;2022-07-22T02:53:49;2.35;;;1.88;;
24357;SDS011;13668;52.154;5.580;2022-07-22T02:56:15;6.88;;;2.03;;
24357;SDS011;13668;52.154;5.580;2022-07-22T02:58:41;4.07;;;1.65;;
24357;SDS011;13668;52.154;5.580;2022-07-22T03:01:07;4.82;;;1.98;;
24357;SDS011;13668;52.154;5.580;2022-07-22T03:03:33;4.35;;;2.28;;
24357;SDS011;13668;52.154;5.580;2022-07-22T03:05:59;2.10;;;1.58;;
24357;SDS011;13668;52.154;5.580;2022-07-22T03:08:25;5.63;;;2.03;;
24357;SDS011;13668;52.154;5.580;2022-07-22T03:10:52;6.57;;;2.78;;
24357;SDS011;13668;52.154;5.580;2022-07-22T03:13:18;3.65;;;2.25;;
24357;SDS011;13668;52.154;5.580;2022-07-22T03:15:44;5.88;;;2.20;;
24357;SDS011;13668;52.154;5.580;2022-07-22T03:18:10;5.78;;;2.83;;
24357;SDS011;13668;52.154;5.580;2022-07-22T03:20:36;7.15;;;2.88;;
24357;SDS011;13668;52.154;5.580;2022-07-22T03:23:02;4.25;;;2.50;;
24357;SDS011;13668;52.154;5.580;2022-07-22T03:25:28;4.43;;;2.70;;
24357;SDS011;13668;52.154;5.580;2022-07-22T03:27:58;5.43;;;2.97;;
24357;SDS011;13668;52.154;5.580;2022-07-22T03:30:24;5.53;;;2.53;;
24357;SDS011;13668;52.154;5.580;2022-07-22T03:32:50;4.07;;;2.88;;
24357;SDS011;13668;52.154;5.580;2022-07-22T03:35:16;5.13;;;2.88;;
24357;SDS011;13668;52.154;5.580;2022-07-22T03:37:42;4.00;;;3.00;;
24357;SDS011;13668;52.154;5.580;2022-07-22T03:40:09;4.97;;;2.55;;
24357;SDS011;13668;52.154;5.580;2022-07-22T03:42:35;5.78;;;3.50;;
24357;SDS011;13668;52.154;5.580;2022-07-22T03:45:01;5.00;;;2.63;;
24357;SDS011;13668;52.154;5.580;2022-07-22T03:47:27;5.10;;;2.72;;
24357;SDS011;13668;52.154;5.580;2022-07-22T03:49:53;4.65;;;2.60;;
24357;SDS011;13668;52.154;5.580;2022-07-22T03:52:19;4.60;;;2.78;;
24357;SDS011;13668;52.154;5.580;2022-07-22T03:54:45;4.07;;;2.55;;
24357;SDS011;13668;52.154;5.580;2022-07-22T03:57:11;5.50;;;2.80;;
24357;SDS011;13668;52.154;5.580;2022-07-22T03:59:37;5.95;;;2.15;;
24357;SDS011;13668;52.154;5.580;2022-07-22T04:02:03;3.85;;;2.20;;
24357;SDS011;13668;52.154;5.580;2022-07-22T04:04:29;4.80;;;2.63;;
24357;SDS011;13668;52.154;5.580;2022-07-22T04:06:55;3.67;;;2.42;;
24357;SDS011;13668;52.154;5.580;2022-07-22T04:09:21;4.97;;;2.55;;
24357;SDS011;13668;52.154;5.580;2022-07-22T04:11:47;4.68;;;2.20;;
24357;SDS011;13668;52.154;5.580;2022-07-22T04:14:15;4.93;;;2.85;;
24357;SDS011;13668;52.154;5.580;2022-07-22T04:16:41;5.15;;;2.60;;
24357;SDS011;13668;52.154;5.580;2022-07-22T04:19:08;6.30;;;2.50;;
24357;SDS011;13668;52.154;5.580;2022-07-22T04:21:34;10.20;;;3.22;;
24357;SDS011;13668;52.154;5.580;2022-07-22T04:24:00;4.70;;;2.58;;
24357;SDS011;13668;52.154;5.580;2022-07-22T04:26:26;4.75;;;3.17;;
24357;SDS011;13668;52.154;5.580;2022-07-22T04:28:52;5.15;;;2.78;;
24357;SDS011;13668;52.154;5.580;2022-07-22T04:31:18;5.78;;;2.42;;
24357;SDS011;13668;52.154;5.580;2022-07-22T04:33:44;4.63;;;2.75;;
24357;SDS011;13668;52.154;5.580;2022-07-22T04:36:10;6.65;;;2.97;;
24357;SDS011;13668;52.154;5.580;2022-07-22T04:38:36;2.60;;;1.90;;
24357;SDS011;13668;52.154;5.580;2022-07-22T04:41:02;6.00;;;2.67;;
24357;SDS011;13668;52.154;5.580;2022-07-22T04:43:28;4.50;;;2.83;;
24357;SDS011;13668;52.154;5.580;2022-07-22T04:45:54;4.78;;;2.70;;
24357;SDS011;13668;52.154;5.580;2022-07-22T04:48:20;3.78;;;2.72;;
24357;SDS011;13668;52.154;5.580;2022-07-22T04:50:46;3.78;;;2.80;;
24357;SDS011;13668;52.154;5.580;2022-07-22T04:53:12;7.88;;;2.85;;
24357;SDS011;13668;52.154;5.580;2022-07-22T04:55:38;4.15;;;2.25;;
24357;SDS011;13668;52.154;5.580;2022-07-22T04:58:04;6.82;;;2.55;;
24357;SDS011;13668;52.154;5.580;2022-07-22T05:00:30;5.18;;;2.53;;
24357;SDS011;13668;52.154;5.580;2022-07-22T05:02:56;2.65;;;2.30;;
24357;SDS011;13668;52.154;5.580;2022-07-22T05:05:22;6.47;;;2.88;;
24357;SDS011;13668;52.154;5.580;2022-07-22T05:07:48;3.95;;;2.75;;
24357;SDS011;13668;52.154;5.580;2022-07-22T05:10:14;6.20;;;2.70;;
24357;SDS011;13668;52.154;5.580;2022-07-22T05:12:40;5.85;;;3.10;;
24357;SDS011;13668;52.154;5.580;2022-07-22T05:15:07;5.45;;;3.08;;
24357;SDS011;13668;52.154;5.580;2022-07-22T05:17:33;6.68;;;3.10;;
24357;SDS011;13668;52.154;5.580;2022-07-22T05:19:59;6.57;;;3.22;;
24357;SDS011;13668;52.154;5.580;2022-07-22T05:22:26;6.65;;;3.15;;
24357;SDS011;13668;52.154;5.580;2022-07-22T05:24:52;4.57;;;3.50;;
24357;SDS011;13668;52.154;5.580;2022-07-22T05:27:18;5.75;;;3.63;;
24357;SDS011;13668;52.154;5.580;2022-07-22T05:29:44;3.38;;;2.80;;
24357;SDS011;13668;52.154;5.580;2022-07-22T05:32:10;4.53;;;3.15;;
24357;SDS011;13668;52.154;5.580;2022-07-22T05:34:36;6.85;;;3.92;;
24357;SDS011;13668;52.154;5.580;2022-07-22T05:37:02;5.80;;;3.17;;
24357;SDS011;13668;52.154;5.580;2022-07-22T05:39:28;5.88;;;2.95;;
24357;SDS011;13668;52.154;5.580;2022-07-22T05:41:54;3.47;;;2.60;;
24357;SDS011;13668;52.154;5.580;2022-07-22T05:44:20;4.97;;;2.80;;
24357;SDS011;13668;52.154;5.580;2022-07-22T05:46:46;4.72;;;2.65;;
24357;SDS011;13668;52.154;5.580;2022-07-22T05:49:12;7.45;;;2.85;;
24357;SDS011;13668;52.154;5.580;2022-07-22T05:51:37;6.68;;;2.88;;
24357;SDS011;13668;52.154;5.580;2022-07-22T05:54:03;5.22;;;2.70;;
24357;SDS011;13668;52.154;5.580;2022-07-22T05:56:29;6.28;;;2.80;;
24357;SDS011;13668;52.154;5.580;2022-07-22T05:58:55;4.40;;;2.85;;
24357;SDS011;13668;52.154;5.580;2022-07-22T06:01:22;6.63;;;2.63;;
24357;SDS011;13668;52.154;5.580;2022-07-22T06:03:48;5.30;;;2.08;;
24357;SDS011;13668;52.154;5.580;2022-07-22T06:06:14;4.22;;;2.10;;
24357;SDS011;13668;52.154;5.580;2022-07-22T06:08:40;2.47;;;2.00;;
24357;SDS011;13668;52.154;5.580;2022-07-22T06:11:06;3.08;;;2.28;;
24357;SDS011;13668;52.154;5.580;2022-07-22T06:13:32;4.50;;;2.40;;
24357;SDS011;13668;52.154;5.580;2022-07-22T06:15:58;3.72;;;2.20;;
24357;SDS011;13668;52.154;5.580;2022-07-22T06:18:24;5.35;;;2.78;;
24357;SDS011;13668;52.154;5.580;2022-07-22T06:20:50;5.13;;;2.92;;
24357;SDS011;13668;52.154;5.580;2022-07-22T06:23:16;3.45;;;3.13;;
24357;SDS011;13668;52.154;5.580;2022-07-22T06:25:42;5.75;;;3.08;;
24357;SDS011;13668;52.154;5.580;2022-07-22T06:28:09;6.47;;;3.75;;
24357;SDS011;13668;52.154;5.580;2022-07-22T06:30:35;3.40;;;2.67;;
24357;SDS011;13668;52.154;5.580;2022-07-22T06:33:01;7.72;;;3.50;;
24357;SDS011;13668;52.154;5.580;2022-07-22T06:35:26;6.88;;;3.72;;
24357;SDS011;13668;52.154;5.580;2022-07-22T06:37:53;6.35;;;3.40;;
24357;SDS011;13668;52.154;5.580;2022-07-22T06:40:19;6.32;;;3.15;;
24357;SDS011;13668;52.154;5.580;2022-07-22T06:42:44;4.25;;;3.50;;
24357;SDS011;13668;52.154;5.580;2022-07-22T06:45:10;5.90;;;3.80;;
24357;SDS011;13668;52.154;5.580;2022-07-22T06:47:37;5.53;;;3.72;;
24357;SDS011;13668;52.154;5.580;2022-07-22T06:50:03;7.22;;;3.90;;
24357;SDS011;13668;52.154;5.580;2022-07-22T06:52:29;5.90;;;3.78;;
24357;SDS011;13668;52.154;5.580;2022-07-22T06:54:55;9.40;;;3.33;;
24357;SDS011;13668;52.154;5.580;2022-07-22T06:57:21;5.22;;;3.80;;
24357;SDS011;13668;52.154;5.580;2022-07-22T06:59:47;6.15;;;3.65;;
24357;SDS011;13668;52.154;5.580;2022-07-22T07:02:13;8.65;;;3.30;;
24357;SDS011;13668;52.154;5.580;2022-07-22T07:04:39;6.82;;;3.80;;
24357;SDS011;13668;52.154;5.580;2022-07-22T07:07:05;4.88;;;3.60;;
24357;SDS011;13668;52.154;5.580;2022-07-22T07:09:31;4.93;;;3.28;;
24357;SDS011;13668;52.154;5.580;2022-07-22T07:11:57;5.47;;;3.00;;
24357;SDS011;13668;52.154;5.580;2022-07-22T07:14:23;8.18;;;2.92;;
24357;SDS011;13668;52.154;5.580;2022-07-22T07:16:49;5.20;;;2.70;;
24357;SDS011;13668;52.154;5.580;2022-07-22T07:19:15;4.25;;;2.85;;
24357;SDS011;13668;52.154;5.580;2022-07-22T07:21:41;3.35;;;2.55;;
24357;SDS011;13668;52.154;5.580;2022-07-22T07:24:07;5.05;;;3.22;;
24357;SDS011;13668;52.154;5.580;2022-07-22T07:26:33;8.20;;;3.15;;
24357;SDS011;13668;52.154;5.580;2022-07-22T07:28:59;9.52;;;3.40;;
24357;SDS011;13668;52.154;5.580;2022-07-22T07:31:25;4.78;;;2.50;;
24357;SDS011;13668;52.154;5.580;2022-07-22T07:33:51;7.05;;;2.60;;
24357;SDS011;13668;52.154;5.580;2022-07-22T07:36:18;8.95;;;3.85;;
24357;SDS011;13668;52.154;5.580;2022-07-22T07:38:44;5.35;;;2.97;;
24357;SDS011;13668;52.154;5.580;2022-07-22T07:41:10;3.75;;;2.53;;
24357;SDS011;13668;52.154;5.580;2022-07-22T07:43:36;4.20;;;2.30;;
24357;SDS011;13668;52.154;5.580;2022-07-22T07:46:03;7.03;;;2.78;;
24357;SDS011;13668;52.154;5.580;2022-07-22T07:48:29;4.93;;;3.00;;
24357;SDS011;13668;52.154;5.580;2022-07-22T07:50:55;5.10;;;2.50;;
24357;SDS011;13668;52.154;5.580;2022-07-22T07:53:21;4.95;;;2.28;;
24357;SDS011;13668;52.154;5.580;2022-07-22T07:55:47;5.63;;;2.38;;
24357;SDS011;13668;52.154;5.580;2022-07-22T07:58:13;5.10;;;2.78;;
24357;SDS011;13668;52.154;5.580;2022-07-22T08:00:39;4.90;;;2.38;;
24357;SDS011;13668;52.154;5.580;2022-07-22T08:03:07;3.83;;;1.80;;
24357;SDS011;13668;52.154;5.580;2022-07-22T08:05:33;5.20;;;1.98;;
24357;SDS011;13668;52.154;5.580;2022-07-22T08:07:59;2.38;;;1.50;;
24357;SDS011;13668;52.154;5.580;2022-07-22T08:10:25;3.55;;;1.60;;
24357;SDS011;13668;52.154;5.580;2022-07-22T08:12:52;1.35;;;1.25;;
24357;SDS011;13668;52.154;5.580;2022-07-22T08:15:19;4.05;;;1.33;;
24357;SDS011;13668;52.154;5.580;2022-07-22T08:17:45;4.47;;;2.50;;
24357;SDS011;13668;52.154;5.580;2022-07-22T08:20:11;4.72;;;2.00;;
24357;SDS011;13668;52.154;5.580;2022-07-22T08:22:37;4.63;;;2.47;;
24357;SDS011;13668;52.154;5.580;2022-07-22T08:25:03;4.97;;;2.10;;
24357;SDS011;13668;52.154;5.580;2022-07-22T08:27:30;3.38;;;1.77;;
24357;SDS011;13668;52.154;5.580;2022-07-22T08:29:56;4.70;;;2.33;;
24357;SDS011;13668;52.154;5.580;2022-07-22T08:32:22;3.55;;;1.70;;
24357;SDS011;13668;52.154;5.580;2022-07-22T08:34:48;2.75;;;1.55;;
24357;SDS011;13668;52.154;5.580;2022-07-22T08:37:15;5.00;;;2.05;;
24357;SDS011;13668;52.154;5.580;2022-07-22T08:39:41;4.90;;;1.75;;
24357;SDS011;13668;52.154;5.580;2022-07-22T08:42:07;5.82;;;1.77;;
24357;SDS011;13668;52.154;5.580;2022-07-22T08:44:33;3.60;;;1.60;;
24357;SDS011;13668;52.154;5.580;2022-07-22T08:47:00;4.85;;;1.58;;
24357;SDS011;13668;52.154;5.580;2022-07-22T08:49:26;2.40;;;1.67;;
24357;SDS011;13668;52.154;5.580;2022-07-22T08:51:52;2.45;;;1.35;;
24357;SDS011;13668;52.154;5.580;2022-07-22T08:54:18;2.67;;;1.58;;
24357;SDS011;13668;52.154;5.580;2022-07-22T08:56:50;3.25;;;1.50;;
24357;SDS011;13668;52.154;5.580;2022-07-22T08:59:17;3.70;;;1.55;;
24357;SDS011;13668;52.154;5.580;2022-07-22T09:02:03;2.75;;;1.42;;
24357;SDS011;13668;52.154;5.580;2022-07-22T09:04:30;2.30;;;1.52;;
24357;SDS011;13668;52.154;5.580;2022-07-22T09:06:56;4.20;;;1.23;;
24357;SDS011;13668;52.154;5.580;2022-07-22T09:09:30;3.50;;;1.10;;
24357;SDS011;13668;52.154;5.580;2022-07-22T09:12:08;3.05;;;1.17;;
24357;SDS011;13668;52.154;5.580;2022-07-22T09:14:47;3.72;;;1.50;;
24357;SDS011;13668;52.154;5.580;2022-07-22T09:19:53;3.90;;;1.52;;
24357;SDS011;13668;52.154;5.580;2022-07-22T09:22:38;4.60;;;1.60;;
24357;SDS011;13668;52.154;5.580;2022-07-22T09:25:16;3.33;;;1.27;;
24357;SDS011;13668;52.154;5.580;2022-07-22T09:27:43;2.17;;;0.70;;
24357;SDS011;13668;52.154;5.580;2022-07-22T09:30:13;2.47;;;0.90;;
24357;SDS011;13668;52.154;5.580;2022-07-22T09:32:39;5.38;;;1.30;;
24357;SDS011;13668;52.154;5.580;2022-07-22T09:35:06;2.20;;;0.95;;
24357;SDS011;13668;52.154;5.580;2022-07-22T09:37:32;2.05;;;0.70;;
24357;SDS011;13668;52.154;5.580;2022-07-22T09:40:11;2.20;;;0.70;;
24357;SDS011;13668;52.154;5.580;2022-07-22T09:43:11;1.90;;;0.90;;
24357;SDS011;13668;52.154;5.580;2022-07-22T09:45:30;1.63;;;0.80;;
24357;SDS011;13668;52.154;5.580;2022-07-22T09:47:57;1.77;;;0.80;;
24357;SDS011;13668;52.154;5.580;2022-07-22T09:50:24;2.63;;;0.95;;
24357;SDS011;13668;52.154;5.580;2022-07-22T09:52:51;1.40;;;0.85;;
24357;SDS011;13668;52.154;5.580;2022-07-22T09:55:18;2.00;;;0.90;;
24357;SDS011;13668;52.154;5.580;2022-07-22T09:57:45;3.38;;;1.20;;
24357;SDS011;13668;52.154;5.580;2022-07-22T10:00:14;2.55;;;1.10;;
24357;SDS011;13668;52.154;5.580;2022-07-22T10:05:12;3.00;;;0.70;;
24357;SDS011;13668;52.154;5.580;2022-07-22T10:07:40;0.95;;;0.70;;
24357;SDS011;13668;52.154;5.580;2022-07-22T10:10:06;2.03;;;1.10;;
24357;SDS011;13668;52.154;5.580;2022-07-22T10:12:34;2.40;;;1.15;;
24357;SDS011;13668;52.154;5.580;2022-07-22T10:15:00;1.45;;;0.75;;
24357;SDS011;13668;52.154;5.580;2022-07-22T10:17:26;3.15;;;0.85;;
24357;SDS011;13668;52.154;5.580;2022-07-22T10:19:53;2.47;;;1.00;;
24357;SDS011;13668;52.154;5.580;2022-07-22T10:25:04;1.05;;;0.57;;
24357;SDS011;13668;52.154;5.580;2022-07-22T10:30:36;0.98;;;0.90;;
24357;SDS011;13668;52.154;5.580;2022-07-22T10:35:58;4.35;;;0.80;;
24357;SDS011;13668;52.154;5.580;2022-07-22T10:38:25;1.33;;;0.80;;
24357;SDS011;13668;52.154;5.580;2022-07-22T10:43:22;2.25;;;1.10;;
24357;SDS011;13668;52.154;5.580;2022-07-22T10:56:19;2.92;;;1.10;;
24357;SDS011;13668;52.154;5.580;2022-07-22T10:58:49;2.35;;;0.70;;
24357;SDS011;13668;52.154;5.580;2022-07-22T11:01:16;2.45;;;1.17;;
24357;SDS011;13668;52.154;5.580;2022-07-22T11:03:44;3.13;;;1.20;;
24357;SDS011;13668;52.154;5.580;2022-07-22T11:08:40;3.03;;;1.30;;
24357;SDS011;13668;52.154;5.580;2022-07-22T11:11:06;3.30;;;1.30;;
24357;SDS011;13668;52.154;5.580;2022-07-22T11:13:33;0.90;;;0.80;;
24357;SDS011;13668;52.154;5.580;2022-07-22T11:18:50;3.55;;;1.40;;
24357;SDS011;13668;52.154;5.580;2022-07-22T11:21:18;1.92;;;0.95;;
24357;SDS011;13668;52.154;5.580;2022-07-22T11:23:44;3.42;;;1.30;;
24357;SDS011;13668;52.154;5.580;2022-07-22T11:26:13;2.10;;;1.65;;
24357;SDS011;13668;52.154;5.580;2022-07-22T11:28:40;2.08;;;1.17;;
24357;SDS011;13668;52.154;5.580;2022-07-22T11:31:07;3.00;;;1.17;;
24357;SDS011;13668;52.154;5.580;2022-07-22T11:33:33;2.10;;;1.10;;
24357;SDS011;13668;52.154;5.580;2022-07-22T11:36:06;1.40;;;1.05;;
24357;SDS011;13668;52.154;5.580;2022-07-22T11:38:48;3.55;;;1.60;;
24357;SDS011;13668;52.154;5.580;2022-07-22T11:41:15;1.83;;;0.90;;
24357;SDS011;13668;52.154;5.580;2022-07-22T11:43:42;4.10;;;1.30;;
24357;SDS011;13668;52.154;5.580;2022-07-22T11:46:08;1.67;;;0.82;;
24357;SDS011;13668;52.154;5.580;2022-07-22T11:48:34;1.30;;;0.95;;
24357;SDS011;13668;52.154;5.580;2022-07-22T11:51:02;1.25;;;1.02;;
24357;SDS011;13668;52.154;5.580;2022-07-22T11:53:28;3.15;;;0.90;;
24357;SDS011;13668;52.154;5.580;2022-07-22T11:56:01;3.08;;;1.20;;
24357;SDS011;13668;52.154;5.580;2022-07-22T11:58:43;4.35;;;1.17;;
24357;SDS011;13668;52.154;5.580;2022-07-22T12:01:13;3.17;;;1.02;;
24357;SDS011;13668;52.154;5.580;2022-07-22T12:03:41;2.22;;;1.00;;
24357;SDS011;13668;52.154;5.580;2022-07-22T12:06:10;3.17;;;1.30;;
24357;SDS011;13668;52.154;5.580;2022-07-22T12:08:41;3.50;;;1.08;;
24357;SDS011;13668;52.154;5.580;2022-07-22T12:11:08;2.03;;;0.75;;
24357;SDS011;13668;52.154;5.580;2022-07-22T12:13:34;3.53;;;1.45;;
24357;SDS011;13668;52.154;5.580;2022-07-22T12:16:00;2.75;;;0.93;;
24357;SDS011;13668;52.154;5.580;2022-07-22T12:18:42;3.03;;;1.15;;
24357;SDS011;13668;52.154;5.580;2022-07-22T12:21:07;3.30;;;1.10;;
24357;SDS011;13668;52.154;5.580;2022-07-22T12:23:33;2.55;;;1.50;;
24357;SDS011;13668;52.154;5.580;2022-07-22T12:26:00;1.23;;;0.80;;
24357;SDS011;13668;52.154;5.580;2022-07-22T12:28:27;4.95;;;1.42;;
24357;SDS011;13668;52.154;5.580;2022-07-22T12:30:56;3.33;;;1.27;;
24357;SDS011;13668;52.154;5.580;2022-07-22T12:33:22;4.50;;;1.98;;
24357;SDS011;13668;52.154;5.580;2022-07-22T12:35:58;2.53;;;1.00;;
24357;SDS011;13668;52.154;5.580;2022-07-22T12:38:25;2.47;;;1.15;;
24357;SDS011;13668;52.154;5.580;2022-07-22T12:40:51;4.05;;;1.20;;
24357;SDS011;13668;52.154;5.580;2022-07-22T12:43:17;1.80;;;1.02;;
24357;SDS011;13668;52.154;5.580;2022-07-22T12:45:43;2.75;;;1.40;;
24357;SDS011;13668;52.154;5.580;2022-07-22T12:48:09;2.80;;;1.55;;
24357;SDS011;13668;52.154;5.580;2022-07-22T12:50:37;4.03;;;1.70;;
24357;SDS011;13668;52.154;5.580;2022-07-22T12:53:13;2.58;;;1.77;;
24357;SDS011;13668;52.154;5.580;2022-07-22T12:55:40;3.15;;;1.48;;
24357;SDS011;13668;52.154;5.580;2022-07-22T12:58:07;2.30;;;1.42;;
24357;SDS011;13668;52.154;5.580;2022-07-22T13:00:36;2.58;;;1.77;;
24357;SDS011;13668;52.154;5.580;2022-07-22T13:03:03;3.83;;;1.70;;
24357;SDS011;13668;52.154;5.580;2022-07-22T13:05:29;4.55;;;1.98;;
24357;SDS011;13668;52.154;5.580;2022-07-22T13:07:58;2.55;;;1.52;;
24357;SDS011;13668;52.154;5.580;2022-07-22T13:10:24;3.58;;;1.95;;
24357;SDS011;13668;52.154;5.580;2022-07-22T13:12:51;2.83;;;1.67;;
24357;SDS011;13668;52.154;5.580;2022-07-22T13:15:18;3.35;;;2.05;;
24357;SDS011;13668;52.154;5.580;2022-07-22T13:17:44;2.92;;;1.55;;
24357;SDS011;13668;52.154;5.580;2022-07-22T13:20:11;3.00;;;2.00;;
24357;SDS011;13668;52.154;5.580;2022-07-22T13:22:38;2.00;;;1.70;;
24357;SDS011;13668;52.154;5.580;2022-07-22T13:25:04;2.60;;;2.00;;
24357;SDS011;13668;52.154;5.580;2022-07-22T13:27:30;4.38;;;2.13;;
24357;SDS011;13668;52.154;5.580;2022-07-22T13:29:56;3.38;;;1.90;;
24357;SDS011;13668;52.154;5.580;2022-07-22T13:32:22;3.60;;;1.70;;
24357;SDS011;13668;52.154;5.580;2022-07-22T13:34:48;2.55;;;1.70;;
24357;SDS011;13668;52.154;5.580;2022-07-22T13:37:14;3.97;;;1.90;;
24357;SDS011;13668;52.154;5.580;2022-07-22T13:39:40;3.38;;;2.20;;
24357;SDS011;13668;52.154;5.580;2022-07-22T13:42:07;3.50;;;2.22;;
24357;SDS011;13668;52.154;5.580;2022-07-22T13:44:33;2.45;;;2.10;;
24357;SDS011;13668;52.154;5.580;2022-07-22T13:47:00;3.40;;;2.30;;
24357;SDS011;13668;52.154;5.580;2022-07-22T13:49:26;3.15;;;2.53;;
24357;SDS011;13668;52.154;5.580;2022-07-22T13:51:52;2.95;;;2.00;;
24357;SDS011;13668;52.154;5.580;2022-07-22T13:54:19;4.07;;;2.42;;
24357;SDS011;13668;52.154;5.580;2022-07-22T13:56:45;3.65;;;2.40;;
24357;SDS011;13668;52.154;5.580;2022-07-22T13:59:13;2.50;;;2.30;;
24357;SDS011;13668;52.154;5.580;2022-07-22T14:01:39;4.00;;;2.40;;
24357;SDS011;13668;52.154;5.580;2022-07-22T14:04:05;3.28;;;2.70;;
24357;SDS011;13668;52.154;5.580;2022-07-22T14:06:31;3.10;;;2.78;;
24357;SDS011;13668;52.154;5.580;2022-07-22T14:08:58;4.10;;;2.50;;
24357;SDS011;13668;52.154;5.580;2022-07-22T14:11:24;3.58;;;3.20;;
24357;SDS011;13668;52.154;5.580;2022-07-22T14:13:50;5.25;;;3.28;;
24357;SDS011;13668;52.154;5.580;2022-07-22T14:16:15;3.25;;;2.75;;
24357;SDS011;13668;52.154;5.580;2022-07-22T14:19:00;4.65;;;2.63;;
24357;SDS011;13668;52.154;5.580;2022-07-22T14:21:26;2.70;;;2.47;;
24357;SDS011;13668;52.154;5.580;2022-07-22T14:23:52;2.65;;;2.33;;
24357;SDS011;13668;52.154;5.580;2022-07-22T14:26:18;3.10;;;2.63;;
24357;SDS011;13668;52.154;5.580;2022-07-22T14:28:44;3.70;;;2.70;;
24357;SDS011;13668;52.154;5.580;2022-07-22T14:31:10;3.95;;;2.72;;
24357;SDS011;13668;52.154;5.580;2022-07-22T14:33:36;3.15;;;2.80;;
24357;SDS011;13668;52.154;5.580;2022-07-22T14:36:02;2.80;;;2.60;;
24357;SDS011;13668;52.154;5.580;2022-07-22T14:38:28;3.72;;;2.92;;
24357;SDS011;13668;52.154;5.580;2022-07-22T14:40:54;2.90;;;2.70;;
24357;SDS011;13668;52.154;5.580;2022-07-22T14:43:20;2.45;;;2.25;;
24357;SDS011;13668;52.154;5.580;2022-07-22T14:45:46;4.30;;;2.63;;
24357;SDS011;13668;52.154;5.580;2022-07-22T14:48:12;5.65;;;3.15;;
24357;SDS011;13668;52.154;5.580;2022-07-22T14:50:38;4.38;;;3.10;;
24357;SDS011;13668;52.154;5.580;2022-07-22T14:53:04;3.20;;;2.67;;
24357;SDS011;13668;52.154;5.580;2022-07-22T14:55:30;3.97;;;2.08;;
24357;SDS011;13668;52.154;5.580;2022-07-22T14:57:56;3.67;;;2.63;;
24357;SDS011;13668;52.154;5.580;2022-07-22T15:00:22;2.75;;;1.95;;
24357;SDS011;13668;52.154;5.580;2022-07-22T15:02:48;4.32;;;2.17;;
24357;SDS011;13668;52.154;5.580;2022-07-22T15:05:14;3.70;;;2.13;;
24357;SDS011;13668;52.154;5.580;2022-07-22T15:07:40;2.15;;;1.90;;
24357;SDS011;13668;52.154;5.580;2022-07-22T15:10:06;3.83;;;2.00;;
24357;SDS011;13668;52.154;5.580;2022-07-22T15:12:32;4.20;;;2.00;;
24357;SDS011;13668;52.154;5.580;2022-07-22T15:14:58;2.92;;;2.10;;
24357;SDS011;13668;52.154;5.580;2022-07-22T15:17:24;3.10;;;2.15;;